Time,TemperatureF,DewpointF,PressureIn,WindDirection,WindDirectionDegrees,WindSpeedMPH,WindSpeedGustMPH,Humidity,HourlyPrecipIn,Conditions,Clouds,dailyrainin,SoftwareType,DateUTC
2013-02-01 00:00:00,46.7,38.1,30.34,SW,226,1.0,1.0,72,0.00,,,0.00,Wunderground v.1.15,2013-02-01 06:00:00,
2013-02-01 00:05:00,46.6,38.1,30.34,SW,224,1.0,1.0,72,0.00,,,0.00,Wunderground v.1.15,2013-02-01 06:05:00,
2013-02-01 00:15:00,46.4,38.2,30.34,SW,217,1.0,1.0,73,0.00,,,0.00,Wunderground v.1.15,2013-02-01 06:15:00,
2013-02-01 00:20:00,46.3,38.5,30.34,SW,221,0.0,0.0,74,0.00,,,0.00,Wunderground v.1.15,2013-02-01 06:20:00,
2013-02-01 00:25:00,46.1,39.0,30.34,SW,221,0.0,0.0,76,0.00,,,0.00,Wunderground v.1.15,2013-02-01 06:25:00,
2013-02-01 00:30:00,46.0,39.5,30.33,SW,221,0.0,0.0,78,0.00,,,0.00,Wunderground v.1.15,2013-02-01 06:30:00,
2013-02-01 00:35:00,45.9,39.8,30.33,SW,221,0.0,0.0,79,0.00,,,0.00,Wunderground v.1.15,2013-02-01 06:35:00,
2013-02-01 00:45:00,45.5,39.4,30.33,SW,221,0.0,0.0,79,0.00,,,0.00,Wunderground v.1.15,2013-02-01 06:45:00,
2013-02-01 00:50:00,45.4,39.6,30.33,SW,221,0.0,0.0,80,0.00,,,0.00,Wunderground v.1.15,2013-02-01 06:50:00,
2013-02-01 00:55:00,45.4,39.6,30.33,SW,221,0.0,0.0,80,0.00,,,0.00,Wunderground v.1.15,2013-02-01 06:55:00,
2013-02-01 01:00:00,45.6,40.7,30.33,SW,214,0.0,0.0,83,0.00,,,0.00,Wunderground v.1.15,2013-02-01 07:00:00,
2013-02-01 01:05:00,45.9,40.1,30.33,SW,227,0.0,2.0,80,0.00,,,0.00,Wunderground v.1.15,2013-02-01 07:05:00,
2013-02-01 01:10:00,46.7,39.9,30.33,WSW,238,1.0,2.0,77,0.00,,,0.00,Wunderground v.1.15,2013-02-01 07:10:00,
2013-02-01 01:20:00,47.7,39.8,30.33,SW,222,1.0,1.0,74,0.00,,,0.00,Wunderground v.1.15,2013-02-01 07:20:00,
2013-02-01 01:25:00,47.6,39.7,30.33,SW,220,1.0,2.0,74,0.00,,,0.00,Wunderground v.1.15,2013-02-01 07:25:00,
2013-02-01 01:30:00,47.6,39.7,30.33,SSW,205,1.0,2.0,74,0.00,,,0.00,Wunderground v.1.15,2013-02-01 07:30:00,
2013-02-01 01:35:00,47.5,39.6,30.33,SW,221,1.0,2.0,74,0.00,,,0.00,Wunderground v.1.15,2013-02-01 07:35:00,
2013-02-01 01:40:00,47.5,39.6,30.33,SW,218,1.0,2.0,74,0.00,,,0.00,Wunderground v.1.15,2013-02-01 07:40:00,
2013-02-01 01:45:00,47.6,39.7,30.32,SW,221,1.0,2.0,74,0.00,,,0.00,Wunderground v.1.15,2013-02-01 07:45:00,
2013-02-01 01:50:00,47.7,39.8,30.32,SW,228,1.0,2.0,74,0.00,,,0.00,Wunderground v.1.15,2013-02-01 07:50:00,
2013-02-01 01:55:00,48.1,39.9,30.32,SW,223,2.0,2.0,73,0.00,,,0.00,Wunderground v.1.15,2013-02-01 07:55:00,
2013-02-01 02:00:00,48.3,40.0,30.32,WSW,242,2.0,2.0,73,0.00,,,0.00,Wunderground v.1.15,2013-02-01 08:00:00,
2013-02-01 02:05:00,48.5,40.2,30.32,WSW,238,2.0,2.0,73,0.00,,,0.00,Wunderground v.1.15,2013-02-01 08:05:00,
2013-02-01 02:10:00,48.5,40.2,30.32,WSW,243,2.0,2.0,73,0.00,,,0.00,Wunderground v.1.15,2013-02-01 08:10:00,
2013-02-01 02:20:00,48.5,39.9,30.31,WSW,240,1.0,2.0,72,0.00,,,0.00,Wunderground v.1.15,2013-02-01 08:20:00,
2013-02-01 02:25:00,48.7,40.1,30.32,WSW,255,1.0,2.0,72,0.00,,,0.00,Wunderground v.1.15,2013-02-01 08:25:00,
2013-02-01 02:30:00,48.6,40.3,30.32,West,266,1.0,2.0,73,0.00,,,0.00,Wunderground v.1.15,2013-02-01 08:30:00,
2013-02-01 02:35:00,48.7,40.4,30.32,SW,234,0.0,2.0,73,0.00,,,0.00,Wunderground v.1.15,2013-02-01 08:35:00,
2013-02-01 02:40:00,48.7,40.4,30.32,WSW,250,1.0,2.0,73,0.00,,,0.00,Wunderground v.1.15,2013-02-01 08:40:00,
2013-02-01 02:45:00,48.6,40.3,30.32,SW,228,1.0,2.0,73,0.00,,,0.00,Wunderground v.1.15,2013-02-01 08:45:00,
2013-02-01 02:55:00,48.2,40.3,30.31,SW,228,0.0,2.0,74,0.00,,,0.00,Wunderground v.1.15,2013-02-01 08:55:00,
2013-02-01 03:00:00,48.1,40.2,30.31,West,269,0.0,2.0,74,0.00,,,0.00,Wunderground v.1.15,2013-02-01 09:00:00,
2013-02-01 03:05:00,48.0,40.5,30.31,West,269,0.0,2.0,75,0.00,,,0.00,Wunderground v.1.15,2013-02-01 09:05:00,
2013-02-01 03:10:00,47.8,40.6,30.31,West,269,0.0,2.0,76,0.00,,,0.00,Wunderground v.1.15,2013-02-01 09:10:00,
2013-02-01 03:15:00,47.5,40.3,30.31,West,269,0.0,2.0,76,0.00,,,0.00,Wunderground v.1.15,2013-02-01 09:15:00,
2013-02-01 03:25:00,47.0,40.5,30.32,West,270,0.0,2.0,78,0.00,,,0.00,Wunderground v.1.15,2013-02-01 09:25:00,
2013-02-01 03:30:00,46.8,40.6,30.32,West,270,0.0,2.0,79,0.00,,,0.00,Wunderground v.1.15,2013-02-01 09:30:00,
2013-02-01 03:35:00,46.7,40.5,30.32,West,270,0.0,2.0,79,0.00,,,0.00,Wunderground v.1.15,2013-02-01 09:35:00,
2013-02-01 03:40:00,46.5,40.7,30.33,West,270,0.0,2.0,80,0.00,,,0.00,Wunderground v.1.15,2013-02-01 09:40:00,
2013-02-01 03:45:00,46.3,40.5,30.32,West,270,0.0,2.0,80,0.00,,,0.00,Wunderground v.1.15,2013-02-01 09:45:00,
2013-02-01 03:50:00,46.0,40.5,30.32,West,270,0.0,2.0,81,0.00,,,0.00,Wunderground v.1.15,2013-02-01 09:50:00,
2013-02-01 04:00:00,45.9,40.7,30.32,West,270,0.0,2.0,82,0.00,,,0.00,Wunderground v.1.15,2013-02-01 10:00:00,
2013-02-01 04:05:00,45.7,41.4,30.32,West,269,0.0,2.0,85,0.00,,,0.00,Wunderground v.1.15,2013-02-01 10:05:00,
2013-02-01 04:10:00,45.2,41.6,30.32,South,190,0.0,2.0,87,0.00,,,0.00,Wunderground v.1.15,2013-02-01 10:10:00,
2013-02-01 04:15:00,44.8,41.2,30.33,South,190,0.0,2.0,87,0.00,,,0.00,Wunderground v.1.15,2013-02-01 10:15:00,
2013-02-01 04:20:00,44.5,41.2,30.32,South,190,0.0,2.0,88,0.00,,,0.00,Wunderground v.1.15,2013-02-01 10:20:00,
2013-02-01 04:30:00,44.1,41.1,30.32,South,190,0.0,2.0,89,0.00,,,0.00,Wunderground v.1.15,2013-02-01 10:30:00,
2013-02-01 04:35:00,44.0,41.3,30.32,South,190,0.0,2.0,90,0.00,,,0.00,Wunderground v.1.15,2013-02-01 10:35:00,
2013-02-01 04:40:00,44.1,41.1,30.32,South,190,0.0,2.0,89,0.00,,,0.00,Wunderground v.1.15,2013-02-01 10:40:00,
2013-02-01 04:45:00,43.9,40.9,30.32,SE,143,0.0,2.0,89,0.00,,,0.00,Wunderground v.1.15,2013-02-01 10:45:00,
2013-02-01 04:50:00,43.8,41.3,30.33,SSE,155,1.0,1.0,91,0.00,,,0.00,Wunderground v.1.15,2013-02-01 10:50:00,
2013-02-01 04:55:00,43.6,41.1,30.33,SSE,155,0.0,2.0,91,0.00,,,0.00,Wunderground v.1.15,2013-02-01 10:55:00,
2013-02-01 05:05:00,43.2,40.5,30.34,SSE,155,0.0,2.0,90,0.00,,,0.00,Wunderground v.1.15,2013-02-01 11:05:00,
2013-02-01 05:10:00,43.5,40.5,30.34,SSE,155,0.0,2.0,89,0.00,,,0.00,Wunderground v.1.15,2013-02-01 11:10:00,
2013-02-01 05:15:00,43.7,40.7,30.34,SSE,155,0.0,2.0,89,0.00,,,0.00,Wunderground v.1.15,2013-02-01 11:15:00,
2013-02-01 05:20:00,43.8,40.8,30.34,SSE,155,0.0,2.0,89,0.00,,,0.00,Wunderground v.1.15,2013-02-01 11:20:00,
2013-02-01 05:25:00,43.9,41.2,30.34,SSE,155,0.0,2.0,90,0.00,,,0.00,Wunderground v.1.15,2013-02-01 11:25:00,
2013-02-01 05:30:00,43.6,40.6,30.34,SSE,155,0.0,2.0,89,0.00,,,0.00,Wunderground v.1.15,2013-02-01 11:30:00,
2013-02-01 05:35:00,43.5,41.0,30.34,SSE,155,0.0,2.0,91,0.00,,,0.00,Wunderground v.1.15,2013-02-01 11:35:00,
2013-02-01 05:40:00,43.7,41.0,30.34,SSE,155,0.0,2.0,90,0.00,,,0.00,Wunderground v.1.15,2013-02-01 11:40:00,
2013-02-01 05:50:00,43.8,40.8,30.34,SSE,155,0.0,2.0,89,0.00,,,0.00,Wunderground v.1.15,2013-02-01 11:50:00,
2013-02-01 05:55:00,43.8,40.8,30.35,SSE,155,0.0,2.0,89,0.00,,,0.00,Wunderground v.1.15,2013-02-01 11:55:00,
2013-02-01 06:00:00,43.5,40.8,30.35,SSE,155,0.0,2.0,90,0.00,,,0.00,Wunderground v.1.15,2013-02-01 12:00:00,
2013-02-01 06:05:00,43.3,40.8,30.37,North,353,1.0,5.0,91,0.00,,,0.00,Wunderground v.1.15,2013-02-01 12:05:00,
2013-02-01 06:10:00,43.5,40.8,30.36,NNE,18,2.0,3.0,90,0.00,,,0.00,Wunderground v.1.15,2013-02-01 12:10:00,
2013-02-01 06:15:00,43.7,41.0,30.38,NNW,344,3.0,10.0,90,0.00,,,0.00,Wunderground v.1.15,2013-02-01 12:15:00,
2013-02-01 06:20:00,44.5,41.5,30.38,North,11,5.0,9.0,89,0.00,,,0.00,Wunderground v.1.15,2013-02-01 12:20:00,
2013-02-01 06:25:00,45.2,41.9,30.38,North,10,4.0,9.0,88,0.00,,,0.00,Wunderground v.1.15,2013-02-01 12:25:00,
2013-02-01 06:30:00,45.5,41.9,30.39,NNE,18,4.0,4.0,87,0.00,,,0.00,Wunderground v.1.15,2013-02-01 12:30:00,
2013-02-01 06:40:00,45.6,42.0,30.39,North,355,2.0,3.0,87,0.00,,,0.00,Wunderground v.1.15,2013-02-01 12:40:00,
2013-02-01 06:45:00,45.7,41.8,30.39,NNW,342,2.0,3.0,86,0.00,,,0.00,Wunderground v.1.15,2013-02-01 12:45:00,
2013-02-01 06:50:00,45.8,41.9,30.39,NE,41,2.0,2.0,86,0.00,,,0.00,Wunderground v.1.15,2013-02-01 12:50:00,
2013-02-01 06:55:00,45.9,41.6,30.38,North,9,2.0,2.0,85,0.00,,,0.00,Wunderground v.1.15,2013-02-01 12:55:00,
2013-02-01 07:00:00,45.9,41.6,30.39,NNE,21,2.0,3.0,85,0.00,,,0.00,Wunderground v.1.15,2013-02-01 13:00:00,
2013-02-01 07:10:00,46.0,41.4,30.39,NE,39,2.0,2.0,84,0.00,,,0.00,Wunderground v.1.15,2013-02-01 13:10:00,
2013-02-01 07:15:00,46.1,41.5,30.39,NE,40,2.0,3.0,84,0.00,,,0.00,Wunderground v.1.15,2013-02-01 13:15:00,
2013-02-01 07:20:00,46.3,41.7,30.39,NNE,24,1.0,1.0,84,0.00,,,0.00,Wunderground v.1.15,2013-02-01 13:20:00,
2013-02-01 07:25:00,46.3,41.7,30.39,SSE,154,1.0,2.0,84,0.00,,,0.00,Wunderground v.1.15,2013-02-01 13:25:00,
2013-02-01 07:30:00,45.9,41.6,30.39,SSE,163,1.0,2.0,85,0.00,,,0.00,Wunderground v.1.15,2013-02-01 13:30:00,
2013-02-01 07:35:00,45.9,42.2,30.39,SE,141,2.0,2.0,87,0.00,,,0.00,Wunderground v.1.15,2013-02-01 13:35:00,
2013-02-01 07:45:00,45.8,41.5,30.39,ESE,121,0.0,2.0,85,0.00,,,0.00,Wunderground v.1.15,2013-02-01 13:45:00,
2013-02-01 07:50:00,45.8,41.9,30.39,ESE,121,0.0,2.0,86,0.00,,,0.00,Wunderground v.1.15,2013-02-01 13:50:00,
2013-02-01 07:55:00,45.8,41.5,30.39,ESE,121,0.0,2.0,85,0.00,,,0.00,Wunderground v.1.15,2013-02-01 13:55:00,
2013-02-01 08:00:00,46.1,42.1,30.39,SE,130,0.0,2.0,86,0.00,,,0.00,Wunderground v.1.15,2013-02-01 14:00:00,
2013-02-01 08:05:00,46.2,41.9,30.39,SE,134,0.0,2.0,85,0.00,,,0.00,Wunderground v.1.15,2013-02-01 14:05:00,
2013-02-01 08:15:00,46.6,41.7,30.40,ESE,105,0.0,2.0,83,0.00,,,0.00,Wunderground v.1.15,2013-02-01 14:15:00,
2013-02-01 08:20:00,46.9,41.7,30.40,ESE,123,0.0,2.0,82,0.00,,,0.00,Wunderground v.1.15,2013-02-01 14:20:00,
2013-02-01 08:25:00,47.1,41.9,30.40,SE,146,0.0,2.0,82,0.00,,,0.00,Wunderground v.1.15,2013-02-01 14:25:00,
2013-02-01 08:30:00,47.6,42.4,30.40,SE,144,1.0,2.0,82,0.00,,,0.00,Wunderground v.1.15,2013-02-01 14:30:00,
2013-02-01 08:35:00,48.0,42.4,30.40,ESE,122,1.0,3.0,81,0.00,,,0.00,Wunderground v.1.15,2013-02-01 14:35:00,
2013-02-01 08:40:00,48.3,42.4,30.40,ESE,111,1.0,4.0,80,0.00,,,0.00,Wunderground v.1.15,2013-02-01 14:40:00,
2013-02-01 08:50:00,48.7,42.1,30.40,East,101,2.0,2.0,78,0.00,,,0.00,Wunderground v.1.15,2013-02-01 14:50:00,
2013-02-01 08:55:00,48.9,42.0,30.40,East,99,2.0,2.0,77,0.00,,,0.00,Wunderground v.1.15,2013-02-01 14:55:00,
2013-02-01 09:00:00,49.1,41.9,30.40,East,98,2.0,2.0,76,0.00,,,0.00,Wunderground v.1.15,2013-02-01 15:00:00,
2013-02-01 09:05:00,49.2,42.6,30.41,East,88,2.0,2.0,78,0.00,,,0.00,Wunderground v.1.15,2013-02-01 15:05:00,
2013-02-01 09:10:00,49.4,42.5,30.40,East,83,2.0,2.0,77,0.00,,,0.00,Wunderground v.1.15,2013-02-01 15:10:00,
2013-02-01 09:20:00,50.2,42.2,30.41,SSE,163,2.0,3.0,74,0.00,,,0.00,Wunderground v.1.15,2013-02-01 15:20:00,
2013-02-01 09:25:00,50.5,41.4,30.41,NE,56,3.0,3.0,71,0.00,,,0.00,Wunderground v.1.15,2013-02-01 15:25:00,
2013-02-01 09:30:00,50.9,42.2,30.41,ESE,105,3.0,3.0,72,0.00,,,0.00,Wunderground v.1.15,2013-02-01 15:30:00,
2013-02-01 09:35:00,51.5,42.0,30.41,East,94,2.0,3.0,70,0.00,,,0.00,Wunderground v.1.15,2013-02-01 15:35:00,
2013-02-01 09:40:00,51.8,41.6,30.41,ENE,74,2.0,3.0,68,0.00,,,0.00,Wunderground v.1.15,2013-02-01 15:40:00,
2013-02-01 09:45:00,52.3,41.7,30.41,East,89,3.0,3.0,67,0.00,,,0.00,Wunderground v.1.15,2013-02-01 15:45:00,
2013-02-01 09:50:00,52.6,41.6,30.41,ENE,72,4.0,4.0,66,0.00,,,0.00,Wunderground v.1.15,2013-02-01 15:50:00,
2013-02-01 09:55:00,53.0,41.5,30.41,East,98,4.0,7.0,65,0.00,,,0.00,Wunderground v.1.15,2013-02-01 15:55:00,
2013-02-01 10:00:00,53.5,41.6,30.41,ENE,69,4.0,5.0,64,0.00,,,0.00,Wunderground v.1.15,2013-02-01 16:00:00,
2013-02-01 10:05:00,53.7,41.4,30.42,East,91,5.0,5.0,63,0.00,,,0.00,Wunderground v.1.15,2013-02-01 16:05:00,
2013-02-01 10:10:00,53.8,41.1,30.41,ENE,63,5.0,6.0,62,0.00,,,0.00,Wunderground v.1.15,2013-02-01 16:10:00,
2013-02-01 10:15:00,54.2,42.3,30.41,SSE,161,4.0,6.0,64,0.00,,,0.00,Wunderground v.1.15,2013-02-01 16:15:00,
2013-02-01 10:25:00,55.0,40.5,30.41,ENE,70,5.0,5.0,58,0.00,,,0.00,Wunderground v.1.15,2013-02-01 16:25:00,
2013-02-01 10:30:00,55.5,40.5,30.41,North,1,4.0,6.0,57,0.00,,,0.00,Wunderground v.1.15,2013-02-01 16:30:00,
2013-02-01 10:35:00,55.8,40.3,30.41,ENE,61,4.0,6.0,56,0.00,,,0.00,Wunderground v.1.15,2013-02-01 16:35:00,
2013-02-01 10:40:00,55.8,39.9,30.41,NE,35,5.0,6.0,55,0.00,,,0.00,Wunderground v.1.15,2013-02-01 16:40:00,
2013-02-01 10:45:00,55.5,40.0,30.41,NE,41,6.0,6.0,56,0.00,,,0.00,Wunderground v.1.15,2013-02-01 16:45:00,
2013-02-01 10:55:00,56.7,41.6,30.41,NE,47,5.0,5.0,57,0.00,,,0.00,Wunderground v.1.15,2013-02-01 16:55:00,
2013-02-01 11:00:00,57.0,41.4,30.41,ENE,64,4.0,4.0,56,0.00,,,0.00,Wunderground v.1.15,2013-02-01 17:00:00,
2013-02-01 11:05:00,57.2,40.7,30.41,ENE,70,4.0,5.0,54,0.00,,,0.00,Wunderground v.1.15,2013-02-01 17:05:00,
2013-02-01 11:10:00,57.1,40.1,30.40,East,84,5.0,8.0,53,0.00,,,0.00,Wunderground v.1.15,2013-02-01 17:10:00,
2013-02-01 11:15:00,57.1,40.6,30.40,NE,45,5.0,8.0,54,0.00,,,0.00,Wunderground v.1.15,2013-02-01 17:15:00,
2013-02-01 11:20:00,57.5,40.5,30.40,East,86,4.0,7.0,53,0.00,,,0.00,Wunderground v.1.15,2013-02-01 17:20:00,
2013-02-01 11:30:00,57.6,41.5,30.39,East,88,4.0,5.0,55,0.00,,,0.00,Wunderground v.1.15,2013-02-01 17:30:00,
2013-02-01 11:35:00,58.0,41.0,30.39,North,8,4.0,5.0,53,0.00,,,0.00,Wunderground v.1.15,2013-02-01 17:35:00,
2013-02-01 11:40:00,58.0,41.0,30.39,East,82,3.0,4.0,53,0.00,,,0.00,Wunderground v.1.15,2013-02-01 17:40:00,
2013-02-01 11:45:00,58.3,40.7,30.39,North,6,3.0,6.0,52,0.00,,,0.00,Wunderground v.1.15,2013-02-01 17:45:00,
2013-02-01 11:50:00,58.8,41.2,30.39,ENE,76,3.0,3.0,52,0.00,,,0.00,Wunderground v.1.15,2013-02-01 17:50:00,
2013-02-01 12:00:00,59.2,40.6,30.38,NNE,13,4.0,4.0,50,0.00,,,0.00,Wunderground v.1.15,2013-02-01 18:00:00,
2013-02-01 12:05:00,59.5,40.8,30.38,East,79,3.0,4.0,50,0.00,,,0.00,Wunderground v.1.15,2013-02-01 18:05:00,
2013-02-01 12:10:00,59.6,40.9,30.38,ENE,63,3.0,5.0,50,0.00,,,0.00,Wunderground v.1.15,2013-02-01 18:10:00,
2013-02-01 12:15:00,59.9,40.7,30.38,NE,51,4.0,5.0,49,0.00,,,0.00,Wunderground v.1.15,2013-02-01 18:15:00,
2013-02-01 12:20:00,59.9,41.7,30.37,NNE,16,3.0,3.0,51,0.00,,,0.00,Wunderground v.1.15,2013-02-01 18:20:00,
2013-02-01 12:25:00,60.3,41.0,30.37,ENE,64,3.0,3.0,49,0.00,,,0.00,Wunderground v.1.15,2013-02-01 18:25:00,
2013-02-01 12:35:00,61.2,42.4,30.37,ESE,111,3.0,3.0,50,0.00,,,0.00,Wunderground v.1.15,2013-02-01 18:35:00,
2013-02-01 12:40:00,61.8,41.3,30.36,NNW,337,3.0,3.0,47,0.00,,,0.00,Wunderground v.1.15,2013-02-01 18:40:00,
2013-02-01 12:45:00,61.7,42.3,30.35,East,84,2.0,4.0,49,0.00,,,0.00,Wunderground v.1.15,2013-02-01 18:45:00,
2013-02-01 12:50:00,61.7,40.7,30.35,East,83,4.0,4.0,46,0.00,,,0.00,Wunderground v.1.15,2013-02-01 18:50:00,
2013-02-01 12:55:00,61.5,41.1,30.35,East,92,4.0,5.0,47,0.00,,,0.00,Wunderground v.1.15,2013-02-01 18:55:00,
2013-02-01 13:05:00,62.0,40.4,30.34,NNW,332,4.0,7.0,45,0.00,,,0.00,Wunderground v.1.15,2013-02-01 19:05:00,
2013-02-01 13:10:00,62.2,39.4,30.35,NE,55,5.0,6.0,43,0.00,,,0.00,Wunderground v.1.15,2013-02-01 19:10:00,
2013-02-01 13:15:00,62.4,40.8,30.35,NNE,18,4.0,6.0,45,0.00,,,0.00,Wunderground v.1.15,2013-02-01 19:15:00,
2013-02-01 13:20:00,62.6,40.4,30.34,NNW,332,4.0,4.0,44,0.00,,,0.00,Wunderground v.1.15,2013-02-01 19:20:00,
2013-02-01 13:25:00,62.8,40.0,30.34,NE,51,2.0,4.0,43,0.00,,,0.00,Wunderground v.1.15,2013-02-01 19:25:00,
2013-02-01 13:30:00,62.8,41.1,30.34,WNW,287,2.0,2.0,45,0.00,,,0.00,Wunderground v.1.15,2013-02-01 19:30:00,
2013-02-01 13:35:00,63.4,42.2,30.34,ENE,59,2.0,4.0,46,0.00,,,0.00,Wunderground v.1.15,2013-02-01 19:35:00,
2013-02-01 13:40:00,63.4,41.1,30.33,SE,136,3.0,3.0,44,0.00,,,0.00,Wunderground v.1.15,2013-02-01 19:40:00,
2013-02-01 13:45:00,63.4,41.1,30.33,ESE,110,4.0,4.0,44,0.00,,,0.00,Wunderground v.1.15,2013-02-01 19:45:00,
2013-02-01 13:50:00,63.5,41.8,30.33,ESE,117,4.0,4.0,45,0.00,,,0.00,Wunderground v.1.15,2013-02-01 19:50:00,
2013-02-01 13:55:00,63.6,41.3,30.33,East,92,5.0,5.0,44,0.00,,,0.00,Wunderground v.1.15,2013-02-01 19:55:00,
2013-02-01 14:00:00,63.1,41.4,30.33,SE,125,4.0,5.0,45,0.00,,,0.00,Wunderground v.1.15,2013-02-01 20:00:00,
2013-02-01 14:10:00,63.3,40.4,30.33,East,95,4.0,4.0,43,0.00,,,0.00,Wunderground v.1.15,2013-02-01 20:10:00,
2013-02-01 14:15:00,63.5,42.3,30.33,NNE,30,4.0,4.0,46,0.00,,,0.00,Wunderground v.1.15,2013-02-01 20:15:00,
2013-02-01 14:20:00,63.8,40.9,30.33,ENE,58,4.0,4.0,43,0.00,,,0.00,Wunderground v.1.15,2013-02-01 20:20:00,
2013-02-01 14:25:00,63.5,39.4,30.33,East,88,4.0,4.0,41,0.00,,,0.00,Wunderground v.1.15,2013-02-01 20:25:00,
2013-02-01 14:30:00,63.5,40.6,30.32,NNW,342,4.0,5.0,43,0.00,,,0.00,Wunderground v.1.15,2013-02-01 20:30:00,
2013-02-01 14:40:00,63.6,40.1,30.32,NE,54,4.0,4.0,42,0.00,,,0.00,Wunderground v.1.15,2013-02-01 20:40:00,
2013-02-01 14:45:00,63.7,38.3,30.32,ENE,59,3.0,4.0,39,0.00,,,0.00,Wunderground v.1.15,2013-02-01 20:45:00,
2013-02-01 14:50:00,63.7,38.9,30.32,NE,48,3.0,3.0,40,0.00,,,0.00,Wunderground v.1.15,2013-02-01 20:50:00,
2013-02-01 14:55:00,63.7,38.3,30.32,East,101,3.0,5.0,39,0.00,,,0.00,Wunderground v.1.15,2013-02-01 20:55:00,
2013-02-01 15:00:00,63.5,38.1,30.32,SE,128,3.0,3.0,39,0.00,,,0.00,Wunderground v.1.15,2013-02-01 21:00:00,
2013-02-01 15:05:00,63.4,38.0,30.31,ENE,65,3.0,3.0,39,0.00,,,0.00,Wunderground v.1.15,2013-02-01 21:05:00,
2013-02-01 15:15:00,63.8,38.4,30.31,SE,140,2.0,4.0,39,0.00,,,0.00,Wunderground v.1.15,2013-02-01 21:15:00,
2013-02-01 15:20:00,63.9,38.4,30.30,ESE,122,3.0,3.0,39,0.00,,,0.00,Wunderground v.1.15,2013-02-01 21:20:00,
2013-02-01 15:25:00,63.8,37.7,30.30,SE,132,3.0,4.0,38,0.00,,,0.00,Wunderground v.1.15,2013-02-01 21:25:00,
2013-02-01 15:30:00,64.0,40.4,30.30,SSE,157,3.0,4.0,42,0.00,,,0.00,Wunderground v.1.15,2013-02-01 21:30:00,
2013-02-01 15:35:00,64.1,38.0,30.31,NE,38,3.0,4.0,38,0.00,,,0.00,Wunderground v.1.15,2013-02-01 21:35:00,
2013-02-01 15:45:00,64.3,38.8,30.31,East,81,3.0,3.0,39,0.00,,,0.00,Wunderground v.1.15,2013-02-01 21:45:00,
2013-02-01 15:50:00,64.2,38.7,30.31,NE,44,1.0,2.0,39,0.00,,,0.00,Wunderground v.1.15,2013-02-01 21:50:00,
2013-02-01 15:55:00,64.2,39.4,30.31,South,173,2.0,2.0,40,0.00,,,0.00,Wunderground v.1.15,2013-02-01 21:55:00,
2013-02-01 16:00:00,64.2,38.0,30.31,ENE,75,2.0,3.0,38,0.00,,,0.00,Wunderground v.1.15,2013-02-01 22:00:00,
2013-02-01 16:05:00,64.1,38.6,30.31,ESE,123,1.0,3.0,39,0.00,,,0.00,Wunderground v.1.15,2013-02-01 22:05:00,
2013-02-01 16:10:00,64.9,38.7,30.31,SE,133,1.0,2.0,38,0.00,,,0.00,Wunderground v.1.15,2013-02-01 22:10:00,
2013-02-01 16:15:00,64.9,39.3,30.31,ESE,122,1.0,2.0,39,0.00,,,0.00,Wunderground v.1.15,2013-02-01 22:15:00,
2013-02-01 16:20:00,64.4,38.2,30.31,East,92,1.0,2.0,38,0.00,,,0.00,Wunderground v.1.15,2013-02-01 22:20:00,
2013-02-01 16:25:00,64.2,38.0,30.31,ESE,110,2.0,2.0,38,0.00,,,0.00,Wunderground v.1.15,2013-02-01 22:25:00,
2013-02-01 16:30:00,64.3,39.4,30.31,ENE,68,1.0,3.0,40,0.00,,,0.00,Wunderground v.1.15,2013-02-01 22:30:00,
2013-02-01 16:35:00,63.8,39.0,30.31,ESE,120,2.0,3.0,40,0.00,,,0.00,Wunderground v.1.15,2013-02-01 22:35:00,
2013-02-01 16:40:00,63.7,38.9,30.31,ENE,59,2.0,2.0,40,0.00,,,0.00,Wunderground v.1.15,2013-02-01 22:40:00,
2013-02-01 16:50:00,63.5,38.7,30.30,ESE,105,1.0,1.0,40,0.00,,,0.00,Wunderground v.1.15,2013-02-01 22:50:00,
2013-02-01 16:55:00,63.5,38.7,30.31,East,99,0.0,2.0,40,0.00,,,0.00,Wunderground v.1.15,2013-02-01 22:55:00,
2013-02-01 17:00:00,63.7,38.3,30.31,ESE,112,0.0,2.0,39,0.00,,,0.00,Wunderground v.1.15,2013-02-01 23:00:00,
2013-02-01 17:05:00,63.5,38.7,30.30,East,87,0.0,2.0,40,0.00,,,0.00,Wunderground v.1.15,2013-02-01 23:05:00,
2013-02-01 17:10:00,63.2,38.5,30.30,ESE,104,1.0,1.0,40,0.00,,,0.00,Wunderground v.1.15,2013-02-01 23:10:00,
2013-02-01 17:15:00,62.9,38.2,30.30,East,96,1.0,2.0,40,0.00,,,0.00,Wunderground v.1.15,2013-02-01 23:15:00,
2013-02-01 17:25:00,62.4,39.0,30.30,East,84,0.0,2.0,42,0.00,,,0.00,Wunderground v.1.15,2013-02-01 23:25:00,
2013-02-01 17:30:00,62.1,38.1,30.30,East,83,1.0,1.0,41,0.00,,,0.00,Wunderground v.1.15,2013-02-01 23:30:00,
2013-02-01 17:35:00,61.8,38.4,30.30,East,83,0.0,2.0,42,0.00,,,0.00,Wunderground v.1.15,2013-02-01 23:35:00,
2013-02-01 17:40:00,61.3,38.6,30.30,East,82,0.0,2.0,43,0.00,,,0.00,Wunderground v.1.15,2013-02-01 23:40:00,
2013-02-01 17:45:00,60.7,39.2,30.30,East,82,0.0,2.0,45,0.00,,,0.00,Wunderground v.1.15,2013-02-01 23:45:00,
2013-02-01 17:50:00,60.2,38.8,30.30,East,79,0.0,2.0,45,0.00,,,0.00,Wunderground v.1.15,2013-02-01 23:50:00,
2013-02-01 17:55:00,59.8,38.4,30.30,NNE,32,0.0,2.0,45,0.00,,,0.00,Wunderground v.1.15,2013-02-01 23:55:00,
2013-02-01 18:00:00,59.3,37.9,30.30,North,3,1.0,2.0,45,0.00,,,0.00,Wunderground v.1.15,2013-02-02 00:00:00,
2013-02-01 18:05:00,59.1,37.8,30.30,North,9,1.0,2.0,45,0.00,,,0.00,Wunderground v.1.15,2013-02-02 00:05:00,
2013-02-01 18:10:00,59.0,37.7,30.30,North,9,1.0,2.0,45,0.00,,,0.00,Wunderground v.1.15,2013-02-02 00:10:00,
2013-02-01 18:20:00,58.7,38.0,30.30,North,9,1.0,2.0,46,0.00,,,0.00,Wunderground v.1.15,2013-02-02 00:20:00,
2013-02-01 18:25:00,58.5,38.3,30.30,North,9,0.0,2.0,47,0.00,,,0.00,Wunderground v.1.15,2013-02-02 00:25:00,
2013-02-01 18:30:00,57.9,42.3,30.30,North,9,0.0,2.0,56,0.00,,,0.00,Wunderground v.1.15,2013-02-02 00:30:00,
2013-02-01 18:35:00,57.0,39.0,30.30,North,9,0.0,2.0,51,0.00,,,0.00,Wunderground v.1.15,2013-02-02 00:35:00,
2013-02-01 18:40:00,56.4,38.5,30.30,North,8,0.0,2.0,51,0.00,,,0.00,Wunderground v.1.15,2013-02-02 00:40:00,
2013-02-01 18:45:00,56.2,39.8,30.30,NW,306,0.0,2.0,54,0.00,,,0.00,Wunderground v.1.15,2013-02-02 00:45:00,
2013-02-01 18:50:00,55.1,40.6,30.30,WNW,302,1.0,3.0,58,0.00,,,0.00,Wunderground v.1.15,2013-02-02 00:50:00,
2013-02-01 19:00:00,55.1,40.1,30.30,NNW,341,1.0,2.0,57,0.00,,,0.00,Wunderground v.1.15,2013-02-02 01:00:00,
2013-02-01 19:05:00,55.0,40.5,30.30,NW,319,1.0,2.0,58,0.00,,,0.00,Wunderground v.1.15,2013-02-02 01:05:00,
2013-02-01 19:10:00,54.7,41.1,30.30,NW,304,1.0,2.0,60,0.00,,,0.00,Wunderground v.1.15,2013-02-02 01:10:00,
2013-02-01 19:15:00,54.2,41.0,30.30,NW,321,1.0,2.0,61,0.00,,,0.00,Wunderground v.1.15,2013-02-02 01:15:00,
2013-02-01 19:20:00,53.9,41.2,30.30,NW,319,1.0,2.0,62,0.00,,,0.00,Wunderground v.1.15,2013-02-02 01:20:00,
2013-02-01 19:30:00,53.8,41.1,30.30,NNW,328,1.0,1.0,62,0.00,,,0.00,Wunderground v.1.15,2013-02-02 01:30:00,
2013-02-01 19:35:00,53.7,41.0,30.30,NNW,328,0.0,2.0,62,0.00,,,0.00,Wunderground v.1.15,2013-02-02 01:35:00,
2013-02-01 19:40:00,53.6,40.9,30.30,NNW,328,0.0,2.0,62,0.00,,,0.00,Wunderground v.1.15,2013-02-02 01:40:00,
2013-02-01 19:45:00,53.2,43.7,30.30,NNW,328,0.0,2.0,70,0.00,,,0.00,Wunderground v.1.15,2013-02-02 01:45:00,
2013-02-01 19:50:00,52.5,42.2,30.31,NNW,328,0.0,2.0,68,0.00,,,0.00,Wunderground v.1.15,2013-02-02 01:50:00,
2013-02-01 19:55:00,51.8,42.3,30.31,NNW,328,0.0,2.0,70,0.00,,,0.00,Wunderground v.1.15,2013-02-02 01:55:00,
2013-02-01 20:00:00,51.5,41.7,30.31,NW,306,0.0,2.0,69,0.00,,,0.00,Wunderground v.1.15,2013-02-02 02:00:00,
2013-02-01 20:05:00,51.8,41.2,30.31,NW,305,0.0,2.0,67,0.00,,,0.00,Wunderground v.1.15,2013-02-02 02:05:00,
2013-02-01 20:10:00,51.6,41.0,30.31,NW,305,0.0,2.0,67,0.00,,,0.00,Wunderground v.1.15,2013-02-02 02:10:00,
2013-02-01 20:15:00,51.5,41.3,30.32,NW,305,0.0,2.0,68,0.00,,,0.00,Wunderground v.1.15,2013-02-02 02:15:00,
2013-02-01 20:20:00,51.0,41.9,30.32,SSW,203,0.0,2.0,71,0.00,,,0.00,Wunderground v.1.15,2013-02-02 02:20:00,
2013-02-01 20:25:00,49.8,42.9,30.32,SSE,150,1.0,2.0,77,0.00,,,0.00,Wunderground v.1.15,2013-02-02 02:25:00,
2013-02-01 20:35:00,48.4,42.2,30.32,SE,141,1.0,2.0,79,0.00,,,0.00,Wunderground v.1.15,2013-02-02 02:35:00,
2013-02-01 20:40:00,48.2,42.0,30.32,SE,141,0.0,2.0,79,0.00,,,0.00,Wunderground v.1.15,2013-02-02 02:40:00,
2013-02-01 20:45:00,48.1,41.9,30.32,SE,141,0.0,2.0,79,0.00,,,0.00,Wunderground v.1.15,2013-02-02 02:45:00,
2013-02-01 20:50:00,48.0,41.8,30.32,SE,141,0.0,2.0,79,0.00,,,0.00,Wunderground v.1.15,2013-02-02 02:50:00,
2013-02-01 20:55:00,48.3,41.1,30.32,SE,141,0.0,2.0,76,0.00,,,0.00,Wunderground v.1.15,2013-02-02 02:55:00,
2013-02-01 21:00:00,49.1,41.5,30.32,SE,141,0.0,2.0,75,0.00,,,0.00,Wunderground v.1.15,2013-02-02 03:00:00,
2013-02-01 21:10:00,49.3,42.1,30.32,WSW,246,0.0,2.0,76,0.00,,,0.00,Wunderground v.1.15,2013-02-02 03:10:00,
2013-02-01 21:15:00,48.9,41.7,30.32,NNW,333,1.0,2.0,76,0.00,,,0.00,Wunderground v.1.15,2013-02-02 03:15:00,
2013-02-01 21:20:00,49.0,40.4,30.32,NNW,333,0.0,2.0,72,0.00,,,0.00,Wunderground v.1.15,2013-02-02 03:20:00,
2013-02-01 21:25:00,49.2,40.6,30.32,NNW,334,0.0,2.0,72,0.00,,,0.00,Wunderground v.1.15,2013-02-02 03:25:00,
2013-02-01 21:30:00,49.5,41.9,30.32,SSE,158,0.0,2.0,75,0.00,,,0.00,Wunderground v.1.15,2013-02-02 03:30:00,
2013-02-01 21:40:00,49.4,39.7,30.32,WNW,293,0.0,2.0,69,0.00,,,0.00,Wunderground v.1.15,2013-02-02 03:40:00,
2013-02-01 21:45:00,49.6,40.6,30.32,WNW,293,0.0,2.0,71,0.00,,,0.00,Wunderground v.1.15,2013-02-02 03:45:00,
2013-02-01 21:50:00,49.5,40.5,30.32,WNW,293,0.0,2.0,71,0.00,,,0.00,Wunderground v.1.15,2013-02-02 03:50:00,
2013-02-01 21:55:00,49.3,39.9,30.32,WNW,293,0.0,2.0,70,0.00,,,0.00,Wunderground v.1.15,2013-02-02 03:55:00,
2013-02-01 22:00:00,48.7,42.8,30.32,WNW,293,0.0,2.0,80,0.00,,,0.00,Wunderground v.1.15,2013-02-02 04:00:00,
2013-02-01 22:05:00,47.9,41.0,30.31,WNW,293,0.0,2.0,77,0.00,,,0.00,Wunderground v.1.15,2013-02-02 04:05:00,
2013-02-01 22:15:00,47.6,40.4,30.32,WNW,285,1.0,2.0,76,0.00,,,0.00,Wunderground v.1.15,2013-02-02 04:15:00,
2013-02-01 22:20:00,46.9,41.1,30.32,NW,310,1.0,2.0,80,0.00,,,0.00,Wunderground v.1.15,2013-02-02 04:20:00,
2013-02-01 22:25:00,46.3,40.5,30.32,NW,326,1.0,2.0,80,0.00,,,0.00,Wunderground v.1.15,2013-02-02 04:25:00,
2013-02-01 22:30:00,46.3,40.8,30.32,NW,308,1.0,2.0,81,0.00,,,0.00,Wunderground v.1.15,2013-02-02 04:30:00,
2013-02-01 22:35:00,45.7,40.8,30.32,NW,318,1.0,2.0,83,0.00,,,0.00,Wunderground v.1.15,2013-02-02 04:35:00,
2013-02-01 22:40:00,45.6,41.0,30.32,West,264,1.0,2.0,84,0.00,,,0.00,Wunderground v.1.15,2013-02-02 04:40:00,
2013-02-01 22:45:00,45.9,40.7,30.32,WSW,246,1.0,2.0,82,0.00,,,0.00,Wunderground v.1.15,2013-02-02 04:45:00,
2013-02-01 22:50:00,46.0,40.5,30.32,SW,228,1.0,1.0,81,0.00,,,0.00,Wunderground v.1.15,2013-02-02 04:50:00,
2013-02-01 23:00:00,45.5,40.9,30.33,SW,228,0.0,2.0,84,0.00,,,0.00,Wunderground v.1.15,2013-02-02 05:00:00,
2013-02-01 23:05:00,45.1,40.9,30.33,SW,228,0.0,2.0,85,0.00,,,0.00,Wunderground v.1.15,2013-02-02 05:05:00,
2013-02-01 23:10:00,44.9,40.0,30.32,SW,229,0.0,2.0,83,0.00,,,0.00,Wunderground v.1.15,2013-02-02 05:10:00,
2013-02-01 23:20:00,45.3,39.8,30.32,SW,236,0.0,2.0,81,0.00,,,0.00,Wunderground v.1.15,2013-02-02 05:20:00,
2013-02-01 23:25:00,45.1,40.2,30.32,SSE,151,0.0,2.0,83,0.00,,,0.00,Wunderground v.1.15,2013-02-02 05:25:00,
2013-02-01 23:30:00,44.7,40.5,30.32,East,86,0.0,2.0,85,0.00,,,0.00,Wunderground v.1.15,2013-02-02 05:30:00,
2013-02-01 23:35:00,44.3,40.4,30.33,WSW,246,1.0,2.0,86,0.00,,,0.00,Wunderground v.1.15,2013-02-02 05:35:00,
2013-02-01 23:40:00,44.5,40.3,30.32,ESE,106,1.0,1.0,85,0.00,,,0.00,Wunderground v.1.15,2013-02-02 05:40:00,
2013-02-01 23:50:00,44.6,40.7,30.32,SSE,157,1.0,2.0,86,0.00,,,0.00,Wunderground v.1.15,2013-02-02 05:50:00,
2013-02-01 23:55:00,44.4,41.1,30.32,SSE,161,1.0,2.0,88,0.00,,,0.00,Wunderground v.1.15,2013-02-02 05:55:00,